createdAt,value
2023-02-28T00:01:26.281Z,4.10
2023-02-28T00:03:55.557Z,3.93
2023-02-28T00:06:23.720Z,3.97
2023-02-28T00:08:51.586Z,3.57
2023-02-28T00:11:19.461Z,3.83
2023-02-28T00:13:48.960Z,3.97
2023-02-28T00:16:18.483Z,4.30
2023-02-28T00:18:46.380Z,3.50
2023-02-28T00:21:16.141Z,4.37
2023-02-28T00:23:44.600Z,4.30
2023-02-28T00:26:12.772Z,4.40
2023-02-28T00:28:40.663Z,4.40
2023-02-28T00:31:08.593Z,4.20
2023-02-28T00:33:36.642Z,3.60
2023-02-28T00:36:07.563Z,4.10
2023-02-28T00:38:36.765Z,3.87
2023-02-28T00:41:05.891Z,4.30
2023-02-28T00:43:34.721Z,3.47
2023-02-28T00:46:03.250Z,3.87
2023-02-28T00:48:31.041Z,4.30
2023-02-28T00:50:58.920Z,3.63
2023-02-28T00:53:26.761Z,4.17
2023-02-28T00:55:55.944Z,4.00
2023-02-28T00:58:23.750Z,4.03
2023-02-28T01:00:52.260Z,4.03
2023-02-28T01:03:20.868Z,4.37
2023-02-28T01:05:49.099Z,4.03
2023-02-28T01:08:16.989Z,3.70
2023-02-28T01:10:45.107Z,4.07
2023-02-28T01:13:14.706Z,3.80
2023-02-28T01:15:45.839Z,4.17
2023-02-28T01:18:13.640Z,4.47
2023-02-28T01:20:41.662Z,4.43
2023-02-28T01:23:09.444Z,4.07
2023-02-28T01:25:37.686Z,4.47
2023-02-28T01:28:06.589Z,5.10
2023-02-28T01:30:35.909Z,4.40
2023-02-28T01:33:03.676Z,4.40
2023-02-28T01:35:34.424Z,3.90
2023-02-28T01:38:15.787Z,4.30
2023-02-28T01:40:48.999Z,4.37
2023-02-28T01:43:23.057Z,4.47
2023-02-28T01:45:52.697Z,4.60
2023-02-28T01:48:22.931Z,4.57
2023-02-28T01:50:51.495Z,5.00
2023-02-28T01:53:23.789Z,3.67
2023-02-28T01:55:54.216Z,4.10
2023-02-28T01:58:22.400Z,3.77
2023-02-28T02:00:52.116Z,4.50
2023-02-28T02:03:22.085Z,4.57
2023-02-28T02:05:50.278Z,4.70
2023-02-28T02:08:21.710Z,4.60
2023-02-28T02:10:54.323Z,4.80
2023-02-28T02:13:40.013Z,4.33
2023-02-28T02:16:23.263Z,3.80
2023-02-28T02:18:55.125Z,3.93
2023-02-28T02:21:59.881Z,4.33
2023-02-28T02:24:52.181Z,4.30
2023-02-28T02:27:26.983Z,4.80
2023-02-28T02:30:27.397Z,4.50
2023-02-28T02:33:40.425Z,4.50
2023-02-28T02:36:14.899Z,4.20
2023-02-28T02:38:49.589Z,4.17
2023-02-28T02:41:25.651Z,4.33
2023-02-28T02:43:55.563Z,4.27
2023-02-28T02:46:28.525Z,4.80
2023-02-28T02:48:58.223Z,4.17
2023-02-28T02:51:29.668Z,4.40
2023-02-28T02:54:01.681Z,3.60
2023-02-28T02:56:33.373Z,4.50
2023-02-28T02:59:04.947Z,3.80
2023-02-28T03:01:34.032Z,4.57
2023-02-28T03:04:04.383Z,3.93
2023-02-28T03:06:33.522Z,4.37
2023-02-28T03:09:02.094Z,4.33
2023-02-28T03:11:30.669Z,4.50
2023-02-28T03:14:12.641Z,4.00
2023-02-28T03:16:59.000Z,4.20
2023-02-28T03:19:39.383Z,5.03
2023-02-28T03:22:20.970Z,4.10
2023-02-28T03:24:56.754Z,4.60
2023-02-28T03:27:29.423Z,4.87
2023-02-28T03:30:03.887Z,4.17
2023-02-28T03:32:37.830Z,4.50
2023-02-28T03:35:11.600Z,4.43
2023-02-28T03:37:45.022Z,3.60
2023-02-28T03:40:16.089Z,3.90
2023-02-28T03:42:47.943Z,4.10
2023-02-28T03:45:20.168Z,4.30
2023-02-28T03:47:54.980Z,4.00
2023-02-28T03:50:26.355Z,4.10
2023-02-28T03:53:02.186Z,4.63
2023-02-28T03:55:32.430Z,3.60
2023-02-28T03:58:06.886Z,3.90
2023-02-28T04:00:39.353Z,4.17
2023-02-28T04:03:07.514Z,4.70
2023-02-28T04:05:45.698Z,3.77
2023-02-28T04:08:14.834Z,4.23
2023-02-28T04:10:44.430Z,4.33
2023-02-28T04:13:12.259Z,4.20
2023-02-28T04:15:40.007Z,3.97
2023-02-28T04:18:08.172Z,4.10
2023-02-28T04:20:35.970Z,4.50
2023-02-28T04:23:03.911Z,4.80
2023-02-28T04:25:33.060Z,4.17
2023-02-28T04:28:01.052Z,4.90
2023-02-28T04:30:30.521Z,3.97
2023-02-28T04:32:58.276Z,4.57
2023-02-28T04:35:26.184Z,3.90
2023-02-28T04:37:53.962Z,4.60
2023-02-28T04:40:21.720Z,4.40
2023-02-28T04:42:50.827Z,4.00
2023-02-28T04:45:18.907Z,4.63
2023-02-28T04:47:46.691Z,4.97
2023-02-28T04:50:14.503Z,4.90
2023-02-28T04:52:42.263Z,5.17
2023-02-28T04:55:10.617Z,4.37
2023-02-28T04:57:38.426Z,5.00
2023-02-28T05:00:12.485Z,5.20
2023-02-28T05:02:40.637Z,4.30
2023-02-28T05:05:08.733Z,5.23
2023-02-28T05:07:37.049Z,4.80
2023-02-28T05:10:06.466Z,4.37
2023-02-28T05:12:34.351Z,4.60
2023-02-28T05:15:03.290Z,4.53
2023-02-28T05:17:32.647Z,4.50
2023-02-28T05:20:13.534Z,5.20
2023-02-28T05:22:43.148Z,5.27
2023-02-28T05:25:13.066Z,5.10
2023-02-28T05:27:40.842Z,4.97
2023-02-28T05:30:11.374Z,5.10
2023-02-28T05:32:43.694Z,5.20
2023-02-28T05:35:12.462Z,5.63
2023-02-28T05:37:41.289Z,5.10
2023-02-28T05:40:11.316Z,5.03
2023-02-28T05:42:39.291Z,5.00
2023-02-28T05:45:08.983Z,6.13
2023-02-28T05:47:37.168Z,5.00
2023-02-28T05:50:07.842Z,5.60
2023-02-28T05:52:35.665Z,5.50
2023-02-28T05:55:03.707Z,5.63
2023-02-28T05:57:31.503Z,7.53
2023-02-28T05:59:59.271Z,5.53
2023-02-28T06:02:27.055Z,5.90
2023-02-28T06:04:54.967Z,5.30
2023-02-28T06:07:24.341Z,6.70
2023-02-28T06:09:52.103Z,5.47
2023-02-28T06:12:19.864Z,6.00
2023-02-28T06:14:47.657Z,6.50
2023-02-28T06:17:15.447Z,6.30
2023-02-28T06:19:43.231Z,5.70
2023-02-28T06:22:11.018Z,5.90
2023-02-28T06:24:40.093Z,5.97
2023-02-28T06:27:07.891Z,5.67
2023-02-28T06:29:36.822Z,6.57
2023-02-28T06:32:04.917Z,6.10
2023-02-28T06:34:32.719Z,5.90
2023-02-28T06:37:03.112Z,6.70
2023-02-28T06:39:31.196Z,5.83
2023-02-28T06:42:00.494Z,6.47
2023-02-28T06:44:28.251Z,5.73
2023-02-28T06:46:55.998Z,6.33
2023-02-28T06:49:23.741Z,6.10
2023-02-28T06:51:51.540Z,6.50
2023-02-28T06:54:19.342Z,5.97
2023-02-28T06:56:47.998Z,6.50
2023-02-28T06:59:17.263Z,6.23
2023-02-28T07:01:45.203Z,6.53
2023-02-28T07:04:14.160Z,6.10
2023-02-28T07:06:42.033Z,6.93
2023-02-28T07:09:11.681Z,6.50
2023-02-28T07:11:39.581Z,6.57
2023-02-28T07:14:07.341Z,5.90
2023-02-28T07:16:37.327Z,6.60
2023-02-28T07:19:05.186Z,6.70
2023-02-28T07:21:32.971Z,6.03
2023-02-28T07:24:00.744Z,7.17
2023-02-28T07:26:28.602Z,6.80
2023-02-28T07:28:56.377Z,6.27
2023-02-28T07:31:24.187Z,6.80
2023-02-28T07:33:54.469Z,6.90
2023-02-28T07:36:22.293Z,6.10
2023-02-28T07:38:51.075Z,6.50
2023-02-28T07:41:20.007Z,6.13
2023-02-28T07:43:47.988Z,6.50
2023-02-28T07:46:17.205Z,6.50
2023-02-28T07:48:45.522Z,6.17
2023-02-28T07:51:14.980Z,6.13
2023-02-28T07:53:42.805Z,6.73
2023-02-28T07:56:11.629Z,6.47
2023-02-28T07:58:39.428Z,6.37
2023-02-28T08:01:08.425Z,6.80
2023-02-28T08:03:36.401Z,6.80
2023-02-28T08:06:05.087Z,7.37
2023-02-28T08:08:34.282Z,6.60
2023-02-28T08:11:02.837Z,6.70
2023-02-28T08:13:31.575Z,6.67
2023-02-28T08:15:59.514Z,6.03
2023-02-28T08:18:27.444Z,6.30
2023-02-28T08:20:55.342Z,5.90
2023-02-28T08:23:23.200Z,6.83
2023-02-28T08:25:57.015Z,6.23
2023-02-28T08:28:27.164Z,6.03
2023-02-28T08:30:55.648Z,6.70
2023-02-28T08:33:23.796Z,6.07
2023-02-28T08:35:54.766Z,6.10
2023-02-28T08:38:22.810Z,6.50
2023-02-28T08:40:50.637Z,6.30
2023-02-28T08:43:19.921Z,7.13
2023-02-28T08:45:47.775Z,6.43
2023-02-28T08:48:16.737Z,6.30
2023-02-28T08:50:50.443Z,6.60
2023-02-28T08:53:23.602Z,7.53
2023-02-28T08:55:58.511Z,6.87
2023-02-28T08:58:28.270Z,6.70
2023-02-28T09:00:56.469Z,7.13
2023-02-28T09:03:25.400Z,7.20
2023-02-28T09:05:58.271Z,6.30
2023-02-28T09:08:26.847Z,7.50
2023-02-28T09:10:55.426Z,7.83
2023-02-28T09:13:23.208Z,6.83
2023-02-28T09:15:52.570Z,8.03
2023-02-28T09:18:20.474Z,7.17
2023-02-28T09:20:48.393Z,6.90
2023-02-28T09:23:16.213Z,6.60
2023-02-28T09:25:48.469Z,7.00
2023-02-28T09:28:17.748Z,6.53
2023-02-28T09:30:47.822Z,6.50
2023-02-28T09:33:17.828Z,6.80
2023-02-28T09:35:45.770Z,7.43
2023-02-28T09:38:13.897Z,6.10
2023-02-28T09:40:50.872Z,7.80
2023-02-28T09:43:21.996Z,6.90
2023-02-28T09:45:53.798Z,6.17
2023-02-28T09:48:27.233Z,6.27
2023-02-28T09:51:02.349Z,6.70
2023-02-28T09:53:34.897Z,7.00
2023-02-28T09:56:07.666Z,6.90
2023-02-28T09:58:43.799Z,6.87
2023-02-28T10:01:21.799Z,7.17
2023-02-28T10:03:58.449Z,6.90
2023-02-28T10:06:31.365Z,6.80
2023-02-28T10:09:03.630Z,7.00
2023-02-28T10:11:34.109Z,6.97
2023-02-28T10:14:05.424Z,7.00
2023-02-28T10:16:37.075Z,7.20
2023-02-28T10:19:08.983Z,6.13
2023-02-28T10:21:41.720Z,6.97
2023-02-28T10:24:20.768Z,7.50
2023-02-28T10:26:50.569Z,6.13
2023-02-28T10:29:18.348Z,6.70
2023-02-28T10:31:46.163Z,6.80
2023-02-28T10:34:15.847Z,6.83
2023-02-28T10:36:45.125Z,7.30
2023-02-28T10:39:42.370Z,7.07
2023-02-28T10:42:26.910Z,6.60
2023-02-28T10:45:09.350Z,7.33
2023-02-28T10:47:42.655Z,6.90
2023-02-28T10:50:31.823Z,6.70
2023-02-28T10:53:13.208Z,6.33
2023-02-28T10:55:41.334Z,7.40
2023-02-28T10:58:24.499Z,7.00
2023-02-28T11:00:53.503Z,7.70
2023-02-28T11:03:33.145Z,6.87
2023-02-28T11:06:08.819Z,7.17
2023-02-28T11:08:45.870Z,7.37
2023-02-28T11:11:13.749Z,6.57
2023-02-28T11:13:42.772Z,7.60
2023-02-28T11:16:14.154Z,7.00
2023-02-28T11:18:45.123Z,6.00
2023-02-28T11:21:19.449Z,7.00
2023-02-28T11:23:47.769Z,7.73
2023-02-28T11:26:16.208Z,7.50
2023-02-28T11:28:44.559Z,8.03
2023-02-28T11:31:20.426Z,7.70
2023-02-28T11:33:51.970Z,10.27
2023-02-28T11:36:25.436Z,8.40
2023-02-28T11:38:54.908Z,6.93
2023-02-28T11:41:33.591Z,7.50
2023-02-28T11:44:23.349Z,6.63
2023-02-28T11:46:55.132Z,7.43
2023-02-28T11:49:33.438Z,7.00
2023-02-28T11:52:09.589Z,7.83
2023-02-28T11:54:54.665Z,7.57
2023-02-28T11:57:34.634Z,7.67
2023-02-28T12:00:10.671Z,8.33
2023-02-28T12:02:51.417Z,7.87
2023-02-28T12:05:30.857Z,8.87
2023-02-28T12:08:12.505Z,8.83
2023-02-28T12:10:54.065Z,7.90
2023-02-28T12:13:28.966Z,8.07
2023-02-28T12:16:11.317Z,8.90
2023-02-28T12:18:53.475Z,8.57
2023-02-28T12:21:33.080Z,7.80
2023-02-28T12:24:21.950Z,8.27
2023-02-28T12:26:52.123Z,8.00
2023-02-28T12:29:23.760Z,7.70
2023-02-28T12:31:55.395Z,8.03
2023-02-28T12:34:28.144Z,8.17
2023-02-28T12:37:01.026Z,8.17
2023-02-28T12:39:41.729Z,8.90
2023-02-28T12:42:21.791Z,7.90
2023-02-28T12:44:54.406Z,8.10
2023-02-28T12:47:22.203Z,8.33
2023-02-28T12:49:55.382Z,8.43
2023-02-28T12:52:30.539Z,7.37
2023-02-28T12:55:06.899Z,8.50
2023-02-28T12:57:39.015Z,8.03
2023-02-28T13:00:14.122Z,7.83
2023-02-28T13:03:31.240Z,8.07
2023-02-28T13:06:12.662Z,7.60
2023-02-28T13:09:03.047Z,7.90
2023-02-28T13:11:34.420Z,9.03
2023-02-28T13:14:05.223Z,8.90
2023-02-28T13:17:11.977Z,7.80
2023-02-28T13:19:43.452Z,8.80
2023-02-28T13:22:21.498Z,8.00
2023-02-28T13:24:52.321Z,8.53
2023-02-28T13:27:40.408Z,8.70
2023-02-28T13:31:00.879Z,9.43
2023-02-28T13:33:31.046Z,8.23
2023-02-28T13:36:24.849Z,8.13
2023-02-28T13:38:54.458Z,8.57
2023-02-28T13:41:45.256Z,8.20
2023-02-28T13:44:17.482Z,9.50
2023-02-28T13:47:25.482Z,8.60
2023-02-28T13:49:54.564Z,8.90
2023-02-28T13:52:25.609Z,9.17
2023-02-28T13:55:30.776Z,9.10
2023-02-28T13:58:21.758Z,7.73
2023-02-28T14:01:07.512Z,8.57
2023-02-28T14:03:47.081Z,8.60
2023-02-28T14:06:24.410Z,8.23
2023-02-28T14:08:58.445Z,9.53
2023-02-28T14:11:32.605Z,9.37
2023-02-28T14:14:01.069Z,9.37
2023-02-28T14:16:40.279Z,7.93
2023-02-28T14:19:13.938Z,8.73
2023-02-28T14:21:53.053Z,9.10
2023-02-28T14:24:59.773Z,9.70
2023-02-28T14:27:37.619Z,9.33
2023-02-28T14:30:42.609Z,9.30
2023-02-28T14:33:38.624Z,8.47
2023-02-28T14:36:16.453Z,10.17
2023-02-28T14:38:49.262Z,9.27
2023-02-28T14:41:22.517Z,9.47
2023-02-28T14:43:52.542Z,8.10
2023-02-28T14:46:21.460Z,9.10
2023-02-28T14:48:52.336Z,8.97
2023-02-28T14:51:22.476Z,9.20
2023-02-28T14:53:56.998Z,8.90
2023-02-28T14:56:33.492Z,8.70
2023-02-28T14:59:01.956Z,9.40
2023-02-28T15:01:30.098Z,9.37
2023-02-28T15:04:03.831Z,9.60
2023-02-28T15:06:32.487Z,9.20
2023-02-28T15:09:10.893Z,9.20
2023-02-28T15:11:40.317Z,9.47
2023-02-28T15:14:08.673Z,9.40
2023-02-28T15:16:39.791Z,9.43
2023-02-28T15:19:16.085Z,10.50
2023-02-28T15:21:48.367Z,9.33
2023-02-28T15:24:24.697Z,9.60
2023-02-28T15:26:55.864Z,9.73
2023-02-28T15:29:26.391Z,9.50
2023-02-28T15:31:59.366Z,10.37
2023-02-28T15:34:42.661Z,8.77
2023-02-28T15:37:40.225Z,9.40
2023-02-28T15:40:15.368Z,10.50
2023-02-28T15:42:44.681Z,10.07
2023-02-28T15:45:38.353Z,10.37
2023-02-28T15:48:14.165Z,9.33
2023-02-28T15:50:43.955Z,10.30
2023-02-28T15:53:19.374Z,11.17
2023-02-28T15:55:53.805Z,9.90
2023-02-28T15:58:23.530Z,9.70
2023-02-28T16:01:10.247Z,10.43
2023-02-28T16:03:42.754Z,9.10
2023-02-28T16:06:20.706Z,10.90
2023-02-28T16:08:52.059Z,9.80
2023-02-28T16:11:22.202Z,10.37
2023-02-28T16:13:50.643Z,9.20
2023-02-28T16:16:20.115Z,11.50
2023-02-28T16:18:48.467Z,10.53
2023-02-28T16:21:17.751Z,11.10
2023-02-28T16:23:45.635Z,11.40
2023-02-28T16:26:21.878Z,9.60
2023-02-28T16:28:49.724Z,10.33
2023-02-28T16:31:17.748Z,10.30
2023-02-28T16:33:46.511Z,10.10
2023-02-28T16:36:21.141Z,10.13
2023-02-28T16:38:49.271Z,9.93
2023-02-28T16:41:21.038Z,10.30
2023-02-28T16:43:52.224Z,10.23
2023-02-28T16:46:20.558Z,9.83
2023-02-28T16:48:52.143Z,10.27
2023-02-28T16:51:21.310Z,11.00
2023-02-28T16:53:49.794Z,9.33
2023-02-28T16:56:20.727Z,10.30
2023-02-28T16:58:49.410Z,10.07
2023-02-28T17:01:17.992Z,9.87
2023-02-28T17:03:45.911Z,10.27
2023-02-28T17:06:22.072Z,10.00
2023-02-28T17:08:50.216Z,11.00
2023-02-28T17:11:18.502Z,10.37
2023-02-28T17:13:46.494Z,10.40
2023-02-28T17:16:24.488Z,9.93
2023-02-28T17:18:52.770Z,10.97
2023-02-28T17:21:21.964Z,10.37
2023-02-28T17:23:49.813Z,10.20
2023-02-28T17:26:20.851Z,9.87
2023-02-28T17:28:49.464Z,12.30
2023-02-28T17:31:17.494Z,11.30
2023-02-28T17:33:45.870Z,11.50
2023-02-28T17:36:16.351Z,11.70
2023-02-28T17:38:45.662Z,13.00
2023-02-28T17:41:13.725Z,13.10
2023-02-28T17:43:41.877Z,10.73
2023-02-28T17:46:19.275Z,11.87
2023-02-28T17:48:47.142Z,12.03
2023-02-28T17:51:15.816Z,12.10
2023-02-28T17:53:45.315Z,11.40
2023-02-28T17:56:15.493Z,12.57
2023-02-28T17:58:43.644Z,10.80
2023-02-28T18:01:12.836Z,10.83
2023-02-28T18:03:41.161Z,11.30
2023-02-28T18:06:14.263Z,11.47
2023-02-28T18:08:42.300Z,11.70
2023-02-28T18:11:18.092Z,11.57
2023-02-28T18:13:47.731Z,12.40
2023-02-28T18:16:16.592Z,12.03
2023-02-28T18:18:44.801Z,13.07
2023-02-28T18:21:14.813Z,13.23
2023-02-28T18:23:47.753Z,13.30
2023-02-28T18:26:18.446Z,16.30
2023-02-28T18:28:47.234Z,16.17
2023-02-28T18:31:17.983Z,17.37
2023-02-28T18:33:46.487Z,17.40
2023-02-28T18:36:14.347Z,17.80
2023-02-28T18:38:43.618Z,16.43
2023-02-28T18:41:11.478Z,17.33
2023-02-28T18:43:40.634Z,17.13
2023-02-28T18:46:10.616Z,17.20
2023-02-28T18:48:38.840Z,15.90
2023-02-28T18:51:10.807Z,16.80
2023-02-28T18:53:40.109Z,15.97
2023-02-28T18:56:10.293Z,15.10
2023-02-28T18:58:38.264Z,14.40
2023-02-28T19:01:16.297Z,14.33
2023-02-28T19:03:44.543Z,12.73
2023-02-28T19:06:12.548Z,11.73
2023-02-28T19:08:40.556Z,12.00
2023-02-28T19:11:09.934Z,12.70
2023-02-28T19:13:38.416Z,13.20
2023-02-28T19:16:09.390Z,13.33
2023-02-28T19:18:37.702Z,12.70
2023-02-28T19:21:08.112Z,13.57
2023-02-28T19:23:36.246Z,14.00
2023-02-28T19:26:08.272Z,14.07
2023-02-28T19:28:36.165Z,16.27
2023-02-28T19:31:04.207Z,14.87
2023-02-28T19:33:33.418Z,15.67
2023-02-28T19:36:02.207Z,15.50
2023-02-28T19:38:30.045Z,15.03
2023-02-28T19:41:02.525Z,13.50
2023-02-28T19:43:31.158Z,14.60
2023-02-28T19:45:59.269Z,14.37
2023-02-28T19:48:28.341Z,13.73
2023-02-28T19:51:02.262Z,14.33
2023-02-28T19:53:31.536Z,15.83
2023-02-28T19:56:00.366Z,15.10
2023-02-28T19:58:28.746Z,15.13
2023-02-28T20:00:56.577Z,16.70
2023-02-28T20:03:24.643Z,16.17
2023-02-28T20:06:03.000Z,18.43
2023-02-28T20:08:31.174Z,19.77
2023-02-28T20:11:04.003Z,17.87
2023-02-28T20:13:31.805Z,17.57
2023-02-28T20:16:06.012Z,16.90
2023-02-28T20:18:34.401Z,17.70
2023-02-28T20:21:03.623Z,15.97
2023-02-28T20:23:31.490Z,17.23
2023-02-28T20:26:00.170Z,17.53
2023-02-28T20:28:28.452Z,16.23
2023-02-28T20:30:56.665Z,17.70
2023-02-28T20:33:24.683Z,18.53
2023-02-28T20:35:59.886Z,18.80
2023-02-28T20:38:29.213Z,18.30
2023-02-28T20:40:59.558Z,16.47
2023-02-28T20:43:27.600Z,18.50
2023-02-28T20:45:58.288Z,18.03
2023-02-28T20:48:26.386Z,19.20
2023-02-28T20:50:55.977Z,17.33
2023-02-28T20:53:25.548Z,18.40
2023-02-28T20:55:58.327Z,16.37
2023-02-28T20:58:28.134Z,17.70
2023-02-28T21:01:01.266Z,16.93
2023-02-28T21:03:29.239Z,17.40
2023-02-28T21:06:02.175Z,17.73
2023-02-28T21:08:30.425Z,19.37
2023-02-28T21:10:59.595Z,20.60
2023-02-28T21:13:27.656Z,16.87
2023-02-28T21:15:55.531Z,17.30
2023-02-28T21:18:23.343Z,17.93
2023-02-28T21:20:51.114Z,16.70
2023-02-28T21:23:18.885Z,17.67
2023-02-28T21:25:46.674Z,17.63
2023-02-28T21:28:16.349Z,16.33
2023-02-28T21:30:44.499Z,17.70
2023-02-28T21:33:12.362Z,17.97
2023-02-28T21:35:40.215Z,18.43
2023-02-28T21:38:07.999Z,18.20
2023-02-28T21:40:35.827Z,16.67
2023-02-28T21:43:03.626Z,18.70
2023-02-28T21:45:34.581Z,18.67
2023-02-28T21:48:02.346Z,18.50
2023-02-28T21:50:30.147Z,18.03
2023-02-28T21:52:57.957Z,18.07
2023-02-28T21:55:25.802Z,17.43
2023-02-28T21:57:53.546Z,18.03
2023-02-28T22:00:23.155Z,18.80
2023-02-28T22:02:52.303Z,17.37
2023-02-28T22:05:20.114Z,17.17
2023-02-28T22:07:48.456Z,16.73
2023-02-28T22:10:16.294Z,17.67
2023-02-28T22:12:44.068Z,18.70
2023-02-28T22:15:13.253Z,19.13
2023-02-28T22:17:40.997Z,17.87
2023-02-28T22:20:12.633Z,17.70
2023-02-28T22:22:40.878Z,19.40
2023-02-28T22:25:10.226Z,19.63
2023-02-28T22:27:38.006Z,17.67
2023-02-28T22:30:06.614Z,19.23
2023-02-28T22:32:34.381Z,20.50
2023-02-28T22:35:02.150Z,19.57
2023-02-28T22:37:31.222Z,18.50
2023-02-28T22:39:59.028Z,19.43
2023-02-28T22:42:26.777Z,17.97
2023-02-28T22:44:54.593Z,18.47
2023-02-28T22:47:26.368Z,19.10
2023-02-28T22:49:54.148Z,18.20
2023-02-28T22:52:21.960Z,16.67
2023-02-28T22:54:53.211Z,17.47
2023-02-28T22:57:21.154Z,15.70
2023-02-28T22:59:48.948Z,16.00
2023-02-28T23:02:16.726Z,15.57
2023-02-28T23:04:44.506Z,15.90
2023-02-28T23:07:12.324Z,15.70
2023-02-28T23:09:40.373Z,14.47
2023-02-28T23:12:09.609Z,13.53
2023-02-28T23:14:37.385Z,14.80
2023-02-28T23:17:05.873Z,14.90
2023-02-28T23:19:33.785Z,15.20
2023-02-28T23:22:03.261Z,13.50
2023-02-28T23:24:32.601Z,15.00
2023-02-28T23:27:02.304Z,13.47
2023-02-28T23:29:31.670Z,13.90
2023-02-28T23:31:59.919Z,15.10
2023-02-28T23:34:27.955Z,14.03
2023-02-28T23:36:56.799Z,13.87
2023-02-28T23:39:25.673Z,13.70
2023-02-28T23:41:53.471Z,14.83
2023-02-28T23:44:21.359Z,14.67
2023-02-28T23:46:52.029Z,15.70
2023-02-28T23:49:20.939Z,16.80
2023-02-28T23:51:49.819Z,14.50
2023-02-28T23:54:18.487Z,14.73
2023-02-28T23:56:46.593Z,14.90
2023-02-28T23:59:14.406Z,14.20
